createdAt,value
2018-05-11T00:00:13.860Z,70.10
2018-05-11T00:02:43.123Z,70.50
2018-05-11T00:05:12.854Z,69.40
2018-05-11T00:07:41.730Z,69.40
2018-05-11T00:10:10.596Z,69.30
2018-05-11T00:12:39.456Z,69.30
2018-05-11T00:15:08.397Z,69.30
2018-05-11T00:17:37.268Z,69.40
2018-05-11T00:20:06.896Z,69.30
2018-05-11T00:22:35.771Z,69.40
2018-05-11T00:25:05.077Z,69.30
2018-05-11T00:27:34.691Z,69.30
2018-05-11T00:30:03.671Z,69.40
2018-05-11T00:32:32.506Z,69.20
2018-05-11T00:35:01.364Z,69.20
2018-05-11T00:37:30.610Z,69.20
2018-05-11T00:39:59.502Z,69.20
2018-05-11T00:42:28.426Z,69.20
2018-05-11T00:44:57.844Z,69.10
2018-05-11T00:47:26.698Z,69.10
2018-05-11T00:49:56.343Z,69.60
2018-05-11T00:52:25.659Z,69.90
2018-05-11T00:54:54.595Z,69.40
2018-05-11T00:57:23.442Z,69.60
2018-05-11T00:59:52.396Z,69.60
2018-05-11T01:02:21.316Z,69.80
2018-05-11T01:04:50.215Z,70.10
2018-05-11T01:07:19.073Z,70.30
2018-05-11T01:09:48.050Z,70.40
2018-05-11T01:12:17.265Z,70.40
2018-05-11T01:14:46.927Z,70.70
2018-05-11T01:17:15.876Z,70.90
2018-05-11T01:19:44.734Z,70.80
2018-05-11T01:22:13.586Z,71.20
2018-05-11T01:24:42.531Z,71.20
2018-05-11T01:27:11.803Z,71.20
2018-05-11T01:29:40.747Z,71.20
2018-05-11T01:32:10.392Z,71.30
2018-05-11T01:34:39.259Z,71.50
2018-05-11T01:37:08.231Z,71.20
2018-05-11T01:39:37.151Z,71.30
2018-05-11T01:42:06.803Z,71.30
2018-05-11T01:44:35.653Z,71.50
2018-05-11T01:47:04.627Z,71.60
2018-05-11T01:49:33.584Z,71.70
2018-05-11T01:52:02.539Z,71.50
2018-05-11T01:54:32.210Z,71.70
2018-05-11T01:57:01.347Z,71.90
2018-05-11T01:59:31.070Z,72.00
2018-05-11T02:02:00.763Z,72.00
2018-05-11T02:04:29.606Z,72.10
2018-05-11T02:06:58.578Z,72.10
2018-05-11T02:09:28.245Z,72.30
2018-05-11T02:11:57.087Z,72.60
2018-05-11T02:14:25.944Z,72.30
2018-05-11T02:16:54.901Z,72.70
2018-05-11T02:19:23.769Z,72.60
2018-05-11T02:21:52.685Z,73.50
2018-05-11T02:24:21.603Z,74.10
2018-05-11T02:26:50.572Z,73.30
2018-05-11T02:29:19.533Z,73.40
2018-05-11T02:31:49.317Z,73.40
2018-05-11T02:34:20.713Z,74.10
2018-05-11T02:36:49.716Z,73.90
2018-05-11T02:39:18.767Z,73.70
2018-05-11T02:41:47.777Z,73.80
2018-05-11T02:44:16.821Z,74.10
2018-05-11T02:46:45.866Z,76.10
2018-05-11T02:49:14.872Z,75.00
2018-05-11T02:51:43.861Z,74.70
2018-05-11T02:54:12.897Z,74.40
2018-05-11T02:56:42.315Z,74.80
2018-05-11T02:59:11.566Z,75.20
2018-05-11T03:01:40.558Z,75.30
2018-05-11T03:04:09.916Z,74.90
2018-05-11T03:06:39.925Z,74.70
2018-05-11T03:09:09.555Z,74.80
2018-05-11T03:11:39.175Z,74.80
2018-05-11T03:14:08.050Z,75.10
2018-05-11T03:16:37.684Z,74.80
2018-05-11T03:19:06.554Z,75.00
2018-05-11T03:21:36.194Z,74.70
2018-05-11T03:24:05.099Z,74.90
2018-05-11T03:26:33.992Z,74.80
2018-05-11T03:29:02.941Z,74.70
2018-05-11T03:31:31.854Z,74.60
2018-05-11T03:34:01.494Z,74.80
2018-05-11T03:36:30.378Z,75.00
2018-05-11T03:38:59.519Z,74.80
2018-05-11T03:41:28.350Z,74.80
2018-05-11T03:43:57.510Z,75.00
2018-05-11T03:46:26.362Z,75.10
2018-05-11T03:48:55.449Z,75.50
2018-05-11T03:51:24.791Z,75.60
2018-05-11T03:53:53.738Z,76.10
2018-05-11T03:56:22.574Z,78.50
2018-05-11T03:58:51.443Z,78.40
2018-05-11T04:01:32.671Z,78.70
2018-05-11T04:04:13.612Z,79.10
2018-05-11T04:06:56.562Z,80.10
2018-05-11T04:09:25.457Z,81.50
2018-05-11T04:11:54.348Z,78.60
2018-05-11T04:14:24.066Z,78.50
2018-05-11T04:16:54.145Z,77.80
2018-05-11T04:19:23.004Z,77.90
2018-05-11T04:21:51.877Z,78.00
2018-05-11T04:24:20.766Z,78.30
2018-05-11T04:26:49.747Z,78.40
2018-05-11T04:29:18.650Z,78.20
2018-05-11T04:31:47.557Z,78.30
2018-05-11T04:34:16.440Z,78.50
2018-05-11T04:36:45.284Z,78.20
2018-05-11T04:39:14.933Z,78.70
2018-05-11T04:41:43.774Z,78.90
2018-05-11T04:44:12.670Z,78.30
2018-05-11T04:46:41.852Z,78.20
2018-05-11T04:49:10.748Z,77.50
2018-05-11T04:51:40.370Z,77.10
2018-05-11T04:54:09.283Z,77.50
2018-05-11T04:56:38.363Z,77.40
2018-05-11T04:59:07.247Z,77.10
2018-05-11T05:01:36.395Z,77.30
2018-05-11T05:04:05.700Z,77.20
2018-05-11T05:06:35.353Z,77.10
2018-05-11T05:09:04.374Z,77.20
2018-05-11T05:11:33.231Z,76.60
2018-05-11T05:14:02.106Z,76.40
2018-05-11T05:16:32.000Z,76.00
2018-05-11T05:19:01.023Z,75.80
2018-05-11T05:21:31.190Z,75.20
2018-05-11T05:24:00.121Z,75.20
2018-05-11T05:26:29.780Z,74.60
2018-05-11T05:31:53.307Z,74.40
2018-05-11T05:34:23.065Z,74.40
2018-05-11T05:36:51.937Z,74.60
2018-05-11T05:39:20.818Z,74.40
2018-05-11T05:41:50.044Z,74.10
2018-05-11T05:44:18.894Z,73.80
2018-05-11T05:46:48.095Z,74.10
2018-05-11T05:49:16.996Z,73.70
2018-05-11T05:51:45.866Z,73.50
2018-05-11T05:54:14.706Z,74.00
2018-05-11T05:56:44.353Z,73.70
2018-05-11T05:59:13.214Z,73.90
2018-05-11T06:01:42.856Z,73.40
2018-05-11T06:04:11.769Z,73.40
2018-05-11T06:06:40.619Z,73.80
2018-05-11T06:09:09.470Z,73.40
2018-05-11T06:11:38.379Z,73.60
2018-05-11T06:14:07.252Z,72.90
2018-05-11T06:16:36.322Z,73.00
2018-05-11T06:19:05.229Z,72.80
2018-05-11T06:21:34.065Z,72.70
2018-05-11T06:24:02.943Z,73.10
2018-05-11T06:26:31.825Z,73.30
2018-05-11T06:29:01.118Z,72.80
2018-05-11T06:31:30.002Z,72.50
2018-05-11T06:33:58.918Z,72.50
2018-05-11T06:36:27.766Z,72.60
2018-05-11T06:38:56.635Z,72.70
2018-05-11T06:41:25.511Z,72.70
2018-05-11T06:43:54.385Z,72.80
2018-05-11T06:46:23.240Z,72.90
2018-05-11T06:48:52.892Z,72.90
2018-05-11T06:51:21.740Z,73.10
2018-05-11T06:53:51.334Z,72.40
2018-05-11T06:56:20.629Z,72.40
2018-05-11T06:58:49.839Z,72.40
2018-05-11T07:01:18.689Z,71.90
2018-05-11T07:03:47.649Z,71.70
2018-05-11T07:06:17.302Z,71.60
2018-05-11T07:08:46.468Z,71.60
2018-05-11T07:11:16.120Z,71.60
2018-05-11T07:13:45.060Z,71.50
2018-05-11T07:16:14.719Z,71.10
2018-05-11T07:18:43.579Z,70.60
2018-05-11T07:21:12.799Z,70.40
2018-05-11T07:23:41.658Z,70.20
2018-05-11T07:26:10.519Z,70.00
2018-05-11T07:28:39.455Z,69.70
2018-05-11T07:31:09.105Z,69.80
2018-05-11T07:33:38.065Z,69.80
2018-05-11T07:36:07.851Z,69.30
2018-05-11T07:38:36.840Z,69.10
2018-05-11T07:41:05.882Z,68.70
2018-05-11T07:43:35.732Z,68.50
2018-05-11T07:46:04.688Z,68.50
2018-05-11T07:48:33.610Z,68.70
2018-05-11T07:51:02.875Z,68.70
2018-05-11T07:53:33.434Z,66.80
2018-05-11T07:56:03.199Z,66.10
2018-05-11T07:58:32.882Z,66.10
2018-05-11T08:01:01.756Z,66.00
2018-05-11T08:03:31.394Z,65.80
2018-05-11T08:06:00.271Z,65.80
2018-05-11T08:08:29.161Z,66.70
2018-05-11T08:10:58.532Z,65.20
2018-05-11T08:13:31.407Z,65.10
2018-05-11T08:16:05.647Z,64.60
2018-05-11T08:18:36.493Z,63.90
2018-05-11T08:21:06.573Z,62.00
2018-05-11T08:23:35.455Z,62.00
2018-05-11T08:26:04.360Z,61.60
2018-05-11T08:28:33.308Z,62.80
2018-05-11T08:31:02.522Z,61.10
2018-05-11T08:33:31.615Z,62.00
2018-05-11T08:36:01.297Z,61.30
2018-05-11T08:38:30.224Z,60.70
2018-05-11T08:40:59.835Z,60.60
2018-05-11T08:43:36.449Z,60.80
2018-05-11T08:46:14.612Z,60.60
2018-05-11T08:48:43.860Z,60.50
2018-05-11T08:51:13.006Z,61.00
2018-05-11T08:53:45.938Z,59.90
2018-05-11T08:56:15.035Z,59.80
2018-05-11T08:58:43.956Z,59.30
2018-05-11T09:01:13.530Z,59.30
2018-05-11T09:03:42.389Z,59.60
2018-05-11T09:06:11.734Z,59.00
2018-05-11T09:08:41.983Z,58.90
2018-05-11T09:11:10.880Z,58.80
2018-05-11T09:13:39.818Z,58.40
2018-05-11T09:16:09.494Z,58.80
2018-05-11T09:18:38.744Z,58.70
2018-05-11T09:21:11.845Z,58.70
2018-05-11T09:26:19.730Z,56.70
2018-05-11T09:28:48.788Z,56.40
2018-05-11T09:31:17.665Z,55.90
2018-05-11T09:33:47.523Z,55.70
2018-05-11T09:36:17.650Z,55.10
2018-05-11T09:38:46.549Z,54.90
2018-05-11T09:41:15.480Z,55.30
2018-05-11T09:43:45.161Z,55.40
2018-05-11T09:46:14.450Z,55.10
2018-05-11T09:48:43.395Z,54.80
2018-05-11T09:51:13.059Z,54.10
2018-05-11T09:53:42.378Z,54.00
2018-05-11T09:56:11.339Z,54.10
2018-05-11T09:58:40.282Z,55.20
2018-05-11T10:01:09.480Z,55.30
2018-05-11T10:03:38.605Z,54.30
2018-05-11T10:06:08.812Z,55.20
2018-05-11T10:08:37.961Z,55.80
2018-05-11T10:11:07.541Z,54.60
2018-05-11T10:13:37.696Z,52.20
2018-05-11T10:16:06.920Z,51.80
2018-05-11T10:18:35.873Z,52.60
2018-05-11T10:21:05.176Z,51.90
2018-05-11T10:23:35.186Z,53.00
2018-05-11T10:26:04.767Z,52.90
2018-05-11T10:28:33.729Z,52.80
2018-05-11T10:31:02.715Z,52.70
2018-05-11T10:33:32.334Z,52.50
2018-05-11T10:36:02.204Z,52.00
2018-05-11T10:38:31.756Z,52.00
2018-05-11T10:41:01.949Z,52.30
2018-05-11T10:43:31.383Z,52.80
2018-05-11T10:46:00.626Z,53.10
2018-05-11T10:48:29.613Z,53.60
2018-05-11T10:50:59.428Z,53.90
2018-05-11T10:53:29.067Z,53.90
2018-05-11T10:55:58.295Z,54.00
2018-05-11T10:58:28.569Z,53.90
2018-05-11T11:00:57.742Z,54.30
2018-05-11T11:03:27.040Z,54.20
2018-05-11T11:05:56.134Z,54.40
2018-05-11T11:08:27.658Z,54.50
2018-05-11T11:10:57.175Z,54.40
2018-05-11T11:13:26.897Z,54.50
2018-05-11T11:15:55.942Z,55.20
2018-05-11T11:18:26.141Z,58.50
2018-05-11T11:20:55.234Z,58.70
2018-05-11T11:23:24.325Z,58.90
2018-05-11T11:25:54.283Z,59.80
2018-05-11T11:28:23.557Z,59.80
2018-05-11T11:30:52.532Z,60.00
2018-05-11T11:33:22.392Z,60.80
2018-05-11T11:35:51.452Z,60.70
2018-05-11T11:38:22.209Z,62.80
2018-05-11T11:40:52.445Z,62.90
2018-05-11T11:43:21.422Z,63.50
2018-05-11T11:45:50.414Z,64.20
2018-05-11T11:48:19.453Z,65.20
2018-05-11T11:50:48.529Z,65.80
2018-05-11T11:53:21.639Z,65.90
2018-05-11T11:55:51.158Z,65.80
2018-05-11T11:58:21.436Z,66.80
2018-05-11T12:00:51.533Z,67.10
2018-05-11T12:03:20.850Z,67.10
2018-05-11T12:05:50.382Z,67.00
2018-05-11T12:08:19.817Z,67.90
2018-05-11T12:10:48.822Z,67.70
2018-05-11T12:13:17.836Z,68.40
2018-05-11T12:15:46.902Z,67.60
2018-05-11T12:18:15.875Z,67.60
2018-05-11T12:20:45.120Z,67.80
2018-05-11T12:23:15.122Z,68.40
2018-05-11T12:25:44.441Z,68.80
2018-05-11T12:28:13.454Z,68.90
2018-05-11T12:30:42.505Z,69.90
2018-05-11T12:33:12.614Z,70.80
2018-05-11T12:35:41.843Z,70.90
2018-05-11T12:38:11.681Z,68.20
2018-05-11T12:40:40.892Z,68.20
2018-05-11T12:43:09.914Z,67.30
2018-05-11T12:45:38.800Z,66.70
2018-05-11T12:48:07.811Z,65.00
2018-05-11T12:50:39.933Z,63.90
2018-05-11T12:53:09.015Z,65.40
2018-05-11T12:55:38.265Z,62.80
2018-05-11T12:58:07.373Z,64.10
2018-05-11T13:00:36.397Z,64.50
2018-05-11T13:03:05.431Z,64.30
2018-05-11T13:05:34.483Z,62.70
2018-05-11T13:08:04.078Z,62.00
2018-05-11T13:10:33.339Z,61.00
2018-05-11T13:13:02.661Z,59.90
2018-05-11T13:15:31.703Z,60.00
2018-05-11T13:18:00.697Z,59.50
2018-05-11T13:20:29.808Z,58.50
2018-05-11T13:22:58.964Z,58.10
2018-05-11T13:25:28.565Z,58.00
2018-05-11T13:27:57.908Z,57.70
2018-05-11T13:30:27.321Z,57.80
2018-05-11T13:32:56.347Z,57.20
2018-05-11T13:35:26.134Z,56.80
2018-05-11T13:37:55.320Z,56.70
2018-05-11T13:40:24.192Z,56.70
2018-05-11T13:42:53.156Z,57.10
2018-05-11T13:45:22.174Z,56.30
2018-05-11T13:47:51.128Z,55.80
2018-05-11T13:50:20.124Z,54.90
2018-05-11T13:52:49.317Z,54.90
2018-05-11T13:55:18.652Z,54.00
2018-05-11T13:57:48.106Z,53.50
2018-05-11T14:00:17.064Z,53.20
2018-05-11T14:02:46.833Z,51.90
2018-05-11T14:05:15.797Z,51.60
2018-05-11T14:07:44.750Z,52.20
2018-05-11T14:10:13.730Z,51.70
2018-05-11T14:12:42.624Z,51.70
2018-05-11T14:15:11.873Z,51.30
2018-05-11T14:17:40.778Z,51.20
2018-05-11T14:20:09.727Z,50.90
2018-05-11T14:22:38.785Z,50.90
2018-05-11T14:25:07.665Z,50.30
2018-05-11T14:27:36.557Z,50.00
2018-05-11T14:30:05.550Z,49.60
2018-05-11T14:32:34.430Z,49.00
2018-05-11T14:35:04.151Z,48.90
2018-05-11T14:37:33.848Z,47.90
2018-05-11T14:40:03.113Z,47.90
2018-05-11T14:42:32.184Z,47.90
2018-05-11T14:45:01.136Z,47.10
2018-05-11T14:47:30.041Z,46.60
2018-05-11T14:49:59.727Z,46.50
2018-05-11T14:52:29.364Z,46.80
2018-05-11T14:54:58.317Z,46.70
2018-05-11T14:57:27.245Z,47.00
2018-05-11T14:59:57.122Z,46.80
2018-05-11T15:02:26.638Z,46.60
2018-05-11T15:04:56.431Z,46.70
2018-05-11T15:07:26.329Z,46.70
2018-05-11T15:09:56.861Z,47.20
2018-05-11T15:12:26.270Z,47.00
2018-05-11T15:14:55.880Z,47.20
2018-05-11T15:17:24.790Z,47.20
2018-05-11T15:19:53.683Z,47.10
2018-05-11T15:22:23.338Z,45.90
2018-05-11T15:24:52.262Z,45.80
2018-05-11T15:27:21.186Z,46.20
2018-05-11T15:29:50.829Z,46.30
2018-05-11T15:32:19.742Z,46.20
2018-05-11T15:34:48.634Z,46.80
2018-05-11T15:37:17.532Z,47.60
2018-05-11T15:39:47.747Z,47.90
2018-05-11T15:42:16.687Z,48.20
2018-05-11T15:44:46.320Z,49.20
2018-05-11T15:47:15.290Z,49.00
2018-05-11T15:49:45.036Z,49.20
2018-05-11T15:52:13.915Z,49.20
2018-05-11T15:54:43.157Z,49.10
2018-05-11T15:57:12.110Z,49.40
2018-05-11T15:59:42.156Z,49.90
2018-05-11T16:02:11.063Z,49.90
2018-05-11T16:04:39.994Z,49.70
2018-05-11T16:07:08.857Z,49.90
2018-05-11T16:09:37.820Z,50.10
2018-05-11T16:12:07.934Z,50.60
2018-05-11T16:14:38.370Z,53.20
2018-05-11T16:17:07.568Z,53.80
2018-05-11T16:19:36.534Z,54.80
2018-05-11T16:22:06.483Z,56.20
2018-05-11T16:24:36.810Z,57.60
2018-05-11T16:27:07.598Z,57.90
2018-05-11T16:29:36.808Z,58.10
2018-05-11T16:32:07.331Z,59.60
2018-05-11T16:34:36.280Z,59.60
2018-05-11T16:37:05.902Z,61.60
2018-05-11T16:39:34.796Z,61.80
2018-05-11T16:42:03.770Z,61.70
2018-05-11T16:44:33.498Z,62.10
2018-05-11T16:47:03.179Z,62.40
2018-05-11T16:49:32.209Z,62.70
2018-05-11T16:52:01.457Z,62.90
2018-05-11T16:54:30.762Z,63.40
2018-05-11T16:56:59.813Z,63.70
2018-05-11T16:59:28.823Z,64.10
2018-05-11T17:01:57.826Z,64.30
2018-05-11T17:04:27.130Z,64.50
2018-05-11T17:06:56.395Z,64.80
2018-05-11T17:09:25.299Z,65.10
2018-05-11T17:11:54.983Z,66.00
2018-05-11T17:14:24.630Z,66.00
2018-05-11T17:16:54.299Z,66.00
2018-05-11T17:19:23.529Z,66.00
2018-05-11T17:21:52.476Z,65.90
2018-05-11T17:24:21.419Z,66.50
2018-05-11T17:26:50.342Z,66.90
2018-05-11T17:29:19.246Z,67.40
2018-05-11T17:31:48.183Z,67.60
2018-05-11T17:34:17.072Z,68.00
2018-05-11T17:36:45.976Z,68.20
2018-05-11T17:39:14.862Z,68.40
2018-05-11T17:41:43.822Z,68.80
2018-05-11T17:44:12.838Z,69.00
2018-05-11T17:46:41.949Z,69.00
2018-05-11T17:49:11.364Z,69.20
2018-05-11T17:51:40.244Z,69.50
2018-05-11T17:54:09.171Z,69.50
2018-05-11T17:56:38.178Z,69.60
2018-05-11T17:59:07.259Z,69.80
2018-05-11T18:01:36.608Z,69.90
2018-05-11T18:04:06.244Z,69.80
2018-05-11T18:06:35.235Z,69.90
2018-05-11T18:09:04.468Z,69.70
2018-05-11T18:11:33.498Z,69.90
2018-05-11T18:14:02.356Z,72.50
2018-05-11T18:16:31.401Z,71.30
2018-05-11T18:19:00.627Z,70.90
2018-05-11T18:21:29.721Z,70.70
2018-05-11T18:23:59.378Z,70.40
2018-05-11T18:26:28.224Z,70.50
2018-05-11T18:28:57.834Z,70.40
2018-05-11T18:31:27.510Z,70.40
2018-05-11T18:33:56.416Z,70.60
2018-05-11T18:36:25.299Z,73.00
2018-05-11T18:38:54.995Z,71.50
2018-05-11T18:41:24.092Z,71.60
2018-05-11T18:43:53.153Z,71.00
2018-05-11T18:46:22.602Z,70.70
2018-05-11T18:48:51.463Z,70.00
2018-05-11T18:51:20.859Z,69.60
2018-05-11T18:53:50.409Z,69.50
2018-05-11T18:56:19.097Z,69.10
2018-05-11T18:58:48.066Z,68.80
2018-05-11T19:01:16.976Z,68.20
2018-05-11T19:03:46.211Z,67.80
2018-05-11T19:06:15.144Z,67.70
2018-05-11T19:08:44.028Z,67.50
2018-05-11T19:11:13.116Z,67.20
2018-05-11T19:13:42.091Z,67.00
2018-05-11T19:16:11.027Z,66.90
2018-05-11T19:18:40.698Z,67.00
2018-05-11T19:21:09.757Z,66.70
2018-05-11T19:23:38.890Z,66.70
2018-05-11T19:26:07.840Z,66.50
2018-05-11T19:28:37.522Z,66.50
2018-05-11T19:31:06.500Z,66.40
2018-05-11T19:33:35.386Z,66.30
2018-05-11T19:36:04.329Z,66.20
2018-05-11T19:38:33.398Z,66.10
2018-05-11T19:41:02.604Z,66.20
2018-05-11T19:43:31.522Z,66.40
2018-05-11T19:46:00.526Z,67.10
2018-05-11T19:48:29.387Z,66.60
2018-05-11T19:50:58.331Z,66.70
2018-05-11T19:53:28.003Z,66.70
2018-05-11T19:55:57.724Z,66.80
2018-05-11T19:58:26.842Z,66.80
2018-05-11T20:00:55.675Z,66.90
2018-05-11T20:03:24.909Z,66.90
2018-05-11T20:05:53.750Z,67.10
2018-05-11T20:08:23.533Z,67.30
2018-05-11T20:10:53.459Z,67.40
2018-05-11T20:13:22.344Z,67.20
2018-05-11T20:15:51.318Z,67.20
2018-05-11T20:18:20.247Z,67.20
2018-05-11T20:20:49.114Z,67.20
2018-05-11T20:23:17.974Z,67.20
2018-05-11T20:25:46.942Z,67.10
2018-05-11T20:28:15.788Z,67.20
2018-05-11T20:30:44.746Z,67.30
2018-05-11T20:33:14.771Z,67.30
2018-05-11T20:35:43.773Z,67.40
2018-05-11T20:38:13.603Z,67.30
2018-05-11T20:40:42.641Z,67.30
2018-05-11T20:43:11.486Z,67.20
2018-05-11T20:45:41.086Z,67.50
2018-05-11T20:48:11.005Z,67.70
2018-05-11T20:50:39.926Z,67.70
2018-05-11T20:53:08.781Z,67.60
2018-05-11T20:55:37.685Z,67.70
2018-05-11T20:58:06.754Z,67.80
2018-05-11T21:00:35.631Z,67.70
2018-05-11T21:03:04.610Z,67.80
2018-05-11T21:05:33.497Z,67.70
2018-05-11T21:08:02.393Z,67.80
2018-05-11T21:10:31.563Z,67.80
2018-05-11T21:13:01.199Z,68.20
2018-05-11T21:15:30.089Z,68.00
2018-05-11T21:17:58.981Z,68.00
2018-05-11T21:20:27.842Z,68.20
2018-05-11T21:22:56.699Z,68.20
2018-05-11T21:25:25.612Z,68.20
2018-05-11T21:27:54.467Z,68.30
2018-05-11T21:30:23.338Z,68.40
2018-05-11T21:32:53.246Z,68.60
2018-05-11T21:35:22.233Z,68.60
2018-05-11T21:37:52.525Z,68.70
2018-05-11T21:40:21.398Z,68.80
2018-05-11T21:42:51.343Z,68.80
2018-05-11T21:45:20.649Z,69.00
2018-05-11T21:47:50.229Z,69.00
2018-05-11T21:50:19.878Z,69.10
2018-05-11T21:52:49.789Z,69.20
2018-05-11T21:55:19.048Z,69.20
2018-05-11T21:57:48.761Z,69.30
2018-05-11T22:00:19.075Z,69.60
2018-05-11T22:02:47.951Z,69.70
2018-05-11T22:05:16.943Z,70.10
2018-05-11T22:07:46.203Z,69.80
2018-05-11T22:10:15.443Z,70.60
2018-05-11T22:12:44.549Z,70.00
2018-05-11T22:15:13.812Z,69.90
2018-05-11T22:17:43.830Z,70.30
2018-05-11T22:20:14.347Z,70.30
2018-05-11T22:22:45.550Z,70.30
2018-05-11T22:25:15.451Z,70.20
2018-05-11T22:27:44.658Z,70.20
2018-05-11T22:30:16.013Z,70.50
2018-05-11T22:32:46.043Z,70.70
2018-05-11T22:35:15.859Z,70.80
2018-05-11T22:37:44.721Z,71.00
2018-05-11T22:40:13.620Z,71.10
2018-05-11T22:42:42.521Z,71.20
2018-05-11T22:45:11.430Z,71.20
2018-05-11T22:47:41.469Z,71.30
2018-05-11T22:50:10.334Z,71.40
2018-05-11T22:52:39.187Z,71.40
2018-05-11T22:55:08.451Z,71.50
2018-05-11T22:57:37.609Z,71.60
2018-05-11T23:00:07.009Z,71.60
2018-05-11T23:02:35.863Z,71.60
2018-05-11T23:05:04.779Z,71.60
2018-05-11T23:07:33.840Z,71.80
2018-05-11T23:10:04.145Z,72.00
2018-05-11T23:12:33.036Z,72.10
2018-05-11T23:15:01.933Z,72.00
2018-05-11T23:17:30.802Z,72.10
2018-05-11T23:20:00.488Z,72.30
2018-05-11T23:22:29.496Z,72.40
2018-05-11T23:25:00.120Z,72.40
2018-05-11T23:27:29.031Z,72.50
2018-05-11T23:29:59.487Z,72.30
2018-05-11T23:32:28.572Z,72.30
2018-05-11T23:34:58.554Z,72.20
2018-05-11T23:37:27.751Z,72.40
2018-05-11T23:39:56.910Z,72.30
2018-05-11T23:42:27.694Z,72.50
2018-05-11T23:44:57.570Z,72.50
2018-05-11T23:47:26.792Z,72.50
2018-05-11T23:49:57.778Z,72.70
2018-05-11T23:52:26.605Z,72.60
2018-05-11T23:54:55.480Z,72.60
2018-05-11T23:57:25.098Z,72.90
2018-05-11T23:59:55.468Z,73.00
